sensor_id;sensor_type;location;lat;lon;timestamp;P1;durP1;ratioP1;P2;durP2;ratioP2
9974;SDS011;5028;50.974;4.968;2023-07-22T00:00:14;5.73;;;5.23;;
9974;SDS011;5028;50.974;4.968;2023-07-22T00:02:44;6.70;;;4.83;;
9974;SDS011;5028;50.974;4.968;2023-07-22T00:05:13;5.00;;;4.50;;
9974;SDS011;5028;50.974;4.968;2023-07-22T00:07:42;6.13;;;5.07;;
9974;SDS011;5028;50.974;4.968;2023-07-22T00:10:11;5.10;;;4.70;;
9974;SDS011;5028;50.974;4.968;2023-07-22T00:12:42;5.77;;;5.17;;
9974;SDS011;5028;50.974;4.968;2023-07-22T00:15:10;5.10;;;4.60;;
9974;SDS011;5028;50.974;4.968;2023-07-22T00:17:41;5.40;;;4.90;;
9974;SDS011;5028;50.974;4.968;2023-07-22T00:20:10;5.27;;;4.77;;
9974;SDS011;5028;50.974;4.968;2023-07-22T00:22:40;5.30;;;4.77;;
9974;SDS011;5028;50.974;4.968;2023-07-22T00:25:09;6.07;;;5.27;;
9974;SDS011;5028;50.974;4.968;2023-07-22T00:27:40;6.90;;;5.20;;
9974;SDS011;5028;50.974;4.968;2023-07-22T00:30:12;5.97;;;5.00;;
9974;SDS011;5028;50.974;4.968;2023-07-22T00:32:41;6.37;;;5.37;;
9974;SDS011;5028;50.974;4.968;2023-07-22T00:35:11;6.80;;;5.30;;
9974;SDS011;5028;50.974;4.968;2023-07-22T00:37:39;5.73;;;5.20;;
9974;SDS011;5028;50.974;4.968;2023-07-22T00:40:09;5.40;;;4.90;;
9974;SDS011;5028;50.974;4.968;2023-07-22T00:42:39;6.17;;;5.57;;
9974;SDS011;5028;50.974;4.968;2023-07-22T00:45:10;6.63;;;5.57;;
9974;SDS011;5028;50.974;4.968;2023-07-22T00:47:39;6.03;;;5.53;;
9974;SDS011;5028;50.974;4.968;2023-07-22T00:50:09;6.10;;;5.50;;
9974;SDS011;5028;50.974;4.968;2023-07-22T00:52:38;5.60;;;5.10;;
9974;SDS011;5028;50.974;4.968;2023-07-22T00:55:09;5.87;;;5.03;;
9974;SDS011;5028;50.974;4.968;2023-07-22T00:57:49;6.20;;;5.30;;
9974;SDS011;5028;50.974;4.968;2023-07-22T01:00:18;7.37;;;5.20;;
9974;SDS011;5028;50.974;4.968;2023-07-22T01:02:48;5.63;;;5.13;;
9974;SDS011;5028;50.974;4.968;2023-07-22T01:05:17;6.37;;;5.77;;
9974;SDS011;5028;50.974;4.968;2023-07-22T01:07:46;6.10;;;5.60;;
9974;SDS011;5028;50.974;4.968;2023-07-22T01:10:15;6.23;;;5.70;;
9974;SDS011;5028;50.974;4.968;2023-07-22T01:12:44;6.60;;;6.00;;
9974;SDS011;5028;50.974;4.968;2023-07-22T01:15:14;6.73;;;6.03;;
9974;SDS011;5028;50.974;4.968;2023-07-22T01:17:43;7.13;;;6.20;;
9974;SDS011;5028;50.974;4.968;2023-07-22T01:20:11;7.70;;;6.00;;
9974;SDS011;5028;50.974;4.968;2023-07-22T01:22:41;7.03;;;6.00;;
9974;SDS011;5028;50.974;4.968;2023-07-22T01:25:12;7.10;;;6.47;;
9974;SDS011;5028;50.974;4.968;2023-07-22T01:27:41;8.50;;;6.80;;
9974;SDS011;5028;50.974;4.968;2023-07-22T01:30:11;8.30;;;6.30;;
9974;SDS011;5028;50.974;4.968;2023-07-22T01:32:41;7.87;;;6.87;;
9974;SDS011;5028;50.974;4.968;2023-07-22T01:35:10;7.53;;;6.53;;
9974;SDS011;5028;50.974;4.968;2023-07-22T01:37:40;7.30;;;6.40;;
9974;SDS011;5028;50.974;4.968;2023-07-22T01:40:09;8.97;;;6.90;;
9974;SDS011;5028;50.974;4.968;2023-07-22T01:42:41;7.87;;;6.30;;
9974;SDS011;5028;50.974;4.968;2023-07-22T01:45:10;7.50;;;6.80;;
9974;SDS011;5028;50.974;4.968;2023-07-22T01:47:39;7.13;;;6.43;;
9974;SDS011;5028;50.974;4.968;2023-07-22T01:50:08;7.03;;;6.33;;
9974;SDS011;5028;50.974;4.968;2023-07-22T01:52:37;9.27;;;7.33;;
9974;SDS011;5028;50.974;4.968;2023-07-22T01:55:06;7.73;;;7.00;;
9974;SDS011;5028;50.974;4.968;2023-07-22T01:57:37;8.30;;;7.47;;
9974;SDS011;5028;50.974;4.968;2023-07-22T02:00:09;8.53;;;7.03;;
9974;SDS011;5028;50.974;4.968;2023-07-22T02:02:39;7.80;;;7.10;;
9974;SDS011;5028;50.974;4.968;2023-07-22T02:05:08;9.57;;;6.70;;
9974;SDS011;5028;50.974;4.968;2023-07-22T02:07:37;8.00;;;7.20;;
9974;SDS011;5028;50.974;4.968;2023-07-22T02:10:06;8.10;;;7.37;;
9974;SDS011;5028;50.974;4.968;2023-07-22T02:12:36;7.57;;;6.80;;
9974;SDS011;5028;50.974;4.968;2023-07-22T02:15:05;8.07;;;7.27;;
9974;SDS011;5028;50.974;4.968;2023-07-22T02:17:36;8.03;;;7.00;;
9974;SDS011;5028;50.974;4.968;2023-07-22T02:20:06;7.80;;;7.10;;
9974;SDS011;5028;50.974;4.968;2023-07-22T02:22:36;8.20;;;7.40;;
9974;SDS011;5028;50.974;4.968;2023-07-22T02:25:05;8.37;;;7.47;;
9974;SDS011;5028;50.974;4.968;2023-07-22T02:27:37;10.80;;;7.37;;
9974;SDS011;5028;50.974;4.968;2023-07-22T02:30:07;9.47;;;7.63;;
9974;SDS011;5028;50.974;4.968;2023-07-22T02:32:40;10.03;;;7.47;;
9974;SDS011;5028;50.974;4.968;2023-07-22T02:35:09;9.07;;;7.67;;
9974;SDS011;5028;50.974;4.968;2023-07-22T02:37:38;9.30;;;7.60;;
9974;SDS011;5028;50.974;4.968;2023-07-22T02:40:07;10.93;;;8.30;;
9974;SDS011;5028;50.974;4.968;2023-07-22T02:42:37;9.47;;;7.77;;
9974;SDS011;5028;50.974;4.968;2023-07-22T02:45:06;9.33;;;7.93;;
9974;SDS011;5028;50.974;4.968;2023-07-22T02:47:36;11.07;;;8.70;;
9974;SDS011;5028;50.974;4.968;2023-07-22T02:50:06;9.03;;;8.03;;
9974;SDS011;5028;50.974;4.968;2023-07-22T02:52:36;12.17;;;8.53;;
9974;SDS011;5028;50.974;4.968;2023-07-22T02:55:06;9.60;;;8.60;;
9974;SDS011;5028;50.974;4.968;2023-07-22T02:57:37;8.73;;;7.83;;
9974;SDS011;5028;50.974;4.968;2023-07-22T03:00:06;9.27;;;8.37;;
9974;SDS011;5028;50.974;4.968;2023-07-22T03:02:38;9.60;;;8.60;;
9974;SDS011;5028;50.974;4.968;2023-07-22T03:05:09;9.97;;;8.30;;
9974;SDS011;5028;50.974;4.968;2023-07-22T03:07:39;9.83;;;8.60;;
9974;SDS011;5028;50.974;4.968;2023-07-22T03:10:08;10.57;;;8.73;;
9974;SDS011;5028;50.974;4.968;2023-07-22T03:12:37;9.80;;;8.27;;
9974;SDS011;5028;50.974;4.968;2023-07-22T03:15:06;9.30;;;8.40;;
9974;SDS011;5028;50.974;4.968;2023-07-22T03:17:36;10.07;;;8.13;;
9974;SDS011;5028;50.974;4.968;2023-07-22T03:20:11;9.53;;;8.27;;
9974;SDS011;5028;50.974;4.968;2023-07-22T03:22:41;10.00;;;9.00;;
9974;SDS011;5028;50.974;4.968;2023-07-22T03:25:10;10.03;;;9.00;;
9974;SDS011;5028;50.974;4.968;2023-07-22T03:27:39;10.43;;;8.87;;
9974;SDS011;5028;50.974;4.968;2023-07-22T03:30:10;9.97;;;8.97;;
9974;SDS011;5028;50.974;4.968;2023-07-22T03:32:41;10.20;;;8.93;;
9974;SDS011;5028;50.974;4.968;2023-07-22T03:35:12;10.10;;;8.50;;
9974;SDS011;5028;50.974;4.968;2023-07-22T03:37:40;10.23;;;9.07;;
9974;SDS011;5028;50.974;4.968;2023-07-22T03:40:10;12.13;;;9.07;;
9974;SDS011;5028;50.974;4.968;2023-07-22T03:42:46;13.00;;;8.70;;
9974;SDS011;5028;50.974;4.968;2023-07-22T03:45:15;10.77;;;8.73;;
9974;SDS011;5028;50.974;4.968;2023-07-22T03:47:44;11.20;;;8.60;;
9974;SDS011;5028;50.974;4.968;2023-07-22T03:50:15;9.30;;;8.37;;
9974;SDS011;5028;50.974;4.968;2023-07-22T03:52:43;9.73;;;8.73;;
9974;SDS011;5028;50.974;4.968;2023-07-22T03:55:12;10.30;;;9.17;;
9974;SDS011;5028;50.974;4.968;2023-07-22T03:57:41;11.10;;;9.13;;
9974;SDS011;5028;50.974;4.968;2023-07-22T04:00:10;10.27;;;9.07;;
9974;SDS011;5028;50.974;4.968;2023-07-22T04:02:39;12.03;;;9.60;;
9974;SDS011;5028;50.974;4.968;2023-07-22T04:05:08;11.57;;;9.57;;
9974;SDS011;5028;50.974;4.968;2023-07-22T04:07:39;10.50;;;9.50;;
9974;SDS011;5028;50.974;4.968;2023-07-22T04:10:08;10.33;;;9.27;;
9974;SDS011;5028;50.974;4.968;2023-07-22T04:12:37;10.90;;;9.43;;
9974;SDS011;5028;50.974;4.968;2023-07-22T04:15:08;11.30;;;9.67;;
9974;SDS011;5028;50.974;4.968;2023-07-22T04:17:39;12.93;;;10.00;;
9974;SDS011;5028;50.974;4.968;2023-07-22T04:20:08;11.50;;;9.60;;
9974;SDS011;5028;50.974;4.968;2023-07-22T04:22:39;11.10;;;9.90;;
9974;SDS011;5028;50.974;4.968;2023-07-22T04:25:09;13.07;;;9.70;;
9974;SDS011;5028;50.974;4.968;2023-07-22T04:27:37;13.43;;;11.03;;
9974;SDS011;5028;50.974;4.968;2023-07-22T04:30:06;11.10;;;9.83;;
9974;SDS011;5028;50.974;4.968;2023-07-22T04:32:36;15.23;;;9.67;;
9974;SDS011;5028;50.974;4.968;2023-07-22T04:35:05;12.67;;;10.03;;
9974;SDS011;5028;50.974;4.968;2023-07-22T04:37:35;16.13;;;10.17;;
9974;SDS011;5028;50.974;4.968;2023-07-22T04:40:06;13.07;;;10.23;;
9974;SDS011;5028;50.974;4.968;2023-07-22T04:42:40;11.40;;;9.77;;
9974;SDS011;5028;50.974;4.968;2023-07-22T04:45:09;14.37;;;10.80;;
9974;SDS011;5028;50.974;4.968;2023-07-22T04:47:38;12.70;;;10.20;;
9974;SDS011;5028;50.974;4.968;2023-07-22T04:50:08;14.30;;;10.87;;
9974;SDS011;5028;50.974;4.968;2023-07-22T04:52:37;15.40;;;10.50;;
9974;SDS011;5028;50.974;4.968;2023-07-22T04:55:07;12.70;;;10.53;;
9974;SDS011;5028;50.974;4.968;2023-07-22T04:57:49;12.97;;;10.23;;
9974;SDS011;5028;50.974;4.968;2023-07-22T05:00:17;13.43;;;9.90;;
9974;SDS011;5028;50.974;4.968;2023-07-22T05:02:47;12.00;;;10.20;;
9974;SDS011;5028;50.974;4.968;2023-07-22T05:05:16;12.63;;;9.53;;
9974;SDS011;5028;50.974;4.968;2023-07-22T05:07:45;12.53;;;10.37;;
9974;SDS011;5028;50.974;4.968;2023-07-22T05:10:17;12.53;;;9.83;;
9974;SDS011;5028;50.974;4.968;2023-07-22T05:12:46;13.17;;;10.00;;
9974;SDS011;5028;50.974;4.968;2023-07-22T05:15:15;12.47;;;10.77;;
9974;SDS011;5028;50.974;4.968;2023-07-22T05:17:43;10.23;;;9.13;;
9974;SDS011;5028;50.974;4.968;2023-07-22T05:20:13;13.97;;;10.07;;
9974;SDS011;5028;50.974;4.968;2023-07-22T05:22:41;12.60;;;9.30;;
9974;SDS011;5028;50.974;4.968;2023-07-22T05:25:10;11.97;;;9.33;;
9974;SDS011;5028;50.974;4.968;2023-07-22T05:27:40;14.60;;;9.50;;
9974;SDS011;5028;50.974;4.968;2023-07-22T05:30:09;11.37;;;9.07;;
9974;SDS011;5028;50.974;4.968;2023-07-22T05:32:54;11.47;;;9.20;;
9974;SDS011;5028;50.974;4.968;2023-07-22T05:35:22;12.60;;;9.37;;
9974;SDS011;5028;50.974;4.968;2023-07-22T05:37:51;11.30;;;9.27;;
9974;SDS011;5028;50.974;4.968;2023-07-22T05:40:19;10.67;;;9.43;;
9974;SDS011;5028;50.974;4.968;2023-07-22T05:42:49;12.07;;;9.37;;
9974;SDS011;5028;50.974;4.968;2023-07-22T05:45:18;11.53;;;9.13;;
9974;SDS011;5028;50.974;4.968;2023-07-22T05:47:47;15.70;;;9.50;;
9974;SDS011;5028;50.974;4.968;2023-07-22T05:50:16;10.40;;;8.53;;
9974;SDS011;5028;50.974;4.968;2023-07-22T05:52:44;11.37;;;9.00;;
9974;SDS011;5028;50.974;4.968;2023-07-22T05:55:14;11.77;;;9.10;;
9974;SDS011;5028;50.974;4.968;2023-07-22T05:57:43;13.83;;;9.53;;
9974;SDS011;5028;50.974;4.968;2023-07-22T06:00:14;15.23;;;9.47;;
9974;SDS011;5028;50.974;4.968;2023-07-22T06:02:43;11.40;;;8.70;;
9974;SDS011;5028;50.974;4.968;2023-07-22T06:05:12;10.93;;;9.13;;
9974;SDS011;5028;50.974;4.968;2023-07-22T06:07:41;12.17;;;8.53;;
9974;SDS011;5028;50.974;4.968;2023-07-22T06:10:10;13.60;;;8.53;;
9974;SDS011;5028;50.974;4.968;2023-07-22T06:12:39;11.00;;;8.47;;
9974;SDS011;5028;50.974;4.968;2023-07-22T06:15:08;12.30;;;8.20;;
9974;SDS011;5028;50.974;4.968;2023-07-22T06:17:41;11.47;;;8.60;;
9974;SDS011;5028;50.974;4.968;2023-07-22T06:20:10;10.50;;;8.53;;
9974;SDS011;5028;50.974;4.968;2023-07-22T06:22:39;11.60;;;8.73;;
9974;SDS011;5028;50.974;4.968;2023-07-22T06:25:08;11.57;;;7.80;;
9974;SDS011;5028;50.974;4.968;2023-07-22T06:27:37;11.47;;;7.90;;
9974;SDS011;5028;50.974;4.968;2023-07-22T06:30:06;12.63;;;8.23;;
9974;SDS011;5028;50.974;4.968;2023-07-22T06:32:36;11.37;;;8.20;;
9974;SDS011;5028;50.974;4.968;2023-07-22T06:35:08;13.53;;;8.13;;
9974;SDS011;5028;50.974;4.968;2023-07-22T06:37:37;13.37;;;7.73;;
9974;SDS011;5028;50.974;4.968;2023-07-22T06:40:07;12.23;;;7.70;;
9974;SDS011;5028;50.974;4.968;2023-07-22T06:42:36;10.93;;;7.20;;
9974;SDS011;5028;50.974;4.968;2023-07-22T06:45:04;10.53;;;7.13;;
9974;SDS011;5028;50.974;4.968;2023-07-22T06:47:34;9.93;;;6.70;;
9974;SDS011;5028;50.974;4.968;2023-07-22T06:50:12;8.87;;;6.30;;
9974;SDS011;5028;50.974;4.968;2023-07-22T06:52:49;10.13;;;7.07;;
9974;SDS011;5028;50.974;4.968;2023-07-22T06:55:18;14.33;;;6.70;;
9974;SDS011;5028;50.974;4.968;2023-07-22T06:57:47;13.00;;;7.00;;
9974;SDS011;5028;50.974;4.968;2023-07-22T07:00:16;10.77;;;6.77;;
9974;SDS011;5028;50.974;4.968;2023-07-22T07:02:46;8.97;;;6.17;;
9974;SDS011;5028;50.974;4.968;2023-07-22T07:05:16;13.37;;;6.00;;
9974;SDS011;5028;50.974;4.968;2023-07-22T07:07:44;8.80;;;6.30;;
9974;SDS011;5028;50.974;4.968;2023-07-22T07:10:13;10.37;;;6.43;;
9974;SDS011;5028;50.974;4.968;2023-07-22T07:12:41;10.43;;;6.53;;
9974;SDS011;5028;50.974;4.968;2023-07-22T07:15:10;11.00;;;6.13;;
9974;SDS011;5028;50.974;4.968;2023-07-22T07:17:39;9.00;;;6.13;;
9974;SDS011;5028;50.974;4.968;2023-07-22T07:20:08;10.37;;;6.30;;
9974;SDS011;5028;50.974;4.968;2023-07-22T07:22:39;10.80;;;5.97;;
9974;SDS011;5028;50.974;4.968;2023-07-22T07:25:08;12.97;;;6.17;;
9974;SDS011;5028;50.974;4.968;2023-07-22T07:27:38;8.27;;;5.73;;
9974;SDS011;5028;50.974;4.968;2023-07-22T07:30:07;10.73;;;6.00;;
9974;SDS011;5028;50.974;4.968;2023-07-22T07:32:36;10.00;;;5.87;;
9974;SDS011;5028;50.974;4.968;2023-07-22T07:35:06;7.77;;;5.10;;
9974;SDS011;5028;50.974;4.968;2023-07-22T07:37:35;8.60;;;5.57;;
9974;SDS011;5028;50.974;4.968;2023-07-22T07:40:08;13.17;;;5.70;;
9974;SDS011;5028;50.974;4.968;2023-07-22T07:42:37;9.83;;;5.33;;
9974;SDS011;5028;50.974;4.968;2023-07-22T07:45:06;8.23;;;5.53;;
9974;SDS011;5028;50.974;4.968;2023-07-22T07:47:35;7.13;;;5.20;;
9974;SDS011;5028;50.974;4.968;2023-07-22T07:50:04;9.83;;;5.10;;
9974;SDS011;5028;50.974;4.968;2023-07-22T07:52:34;7.33;;;4.77;;
9974;SDS011;5028;50.974;4.968;2023-07-22T07:55:07;7.30;;;5.20;;
9974;SDS011;5028;50.974;4.968;2023-07-22T07:57:36;10.00;;;5.00;;
9974;SDS011;5028;50.974;4.968;2023-07-22T08:00:05;7.70;;;4.60;;
9974;SDS011;5028;50.974;4.968;2023-07-22T08:02:36;8.00;;;4.70;;
9974;SDS011;5028;50.974;4.968;2023-07-22T08:05:04;7.40;;;4.90;;
9974;SDS011;5028;50.974;4.968;2023-07-22T08:07:34;7.73;;;5.50;;
9974;SDS011;5028;50.974;4.968;2023-07-22T08:10:03;5.93;;;4.90;;
9974;SDS011;5028;50.974;4.968;2023-07-22T08:12:35;8.20;;;4.93;;
9974;SDS011;5028;50.974;4.968;2023-07-22T08:15:05;10.00;;;5.10;;
9974;SDS011;5028;50.974;4.968;2023-07-22T08:17:34;7.40;;;5.00;;
9974;SDS011;5028;50.974;4.968;2023-07-22T08:20:03;7.80;;;4.23;;
9974;SDS011;5028;50.974;4.968;2023-07-22T08:22:34;6.73;;;4.67;;
9974;SDS011;5028;50.974;4.968;2023-07-22T08:25:03;6.67;;;4.20;;
9974;SDS011;5028;50.974;4.968;2023-07-22T08:27:33;8.30;;;3.93;;
9974;SDS011;5028;50.974;4.968;2023-07-22T08:30:03;7.17;;;4.07;;
9974;SDS011;5028;50.974;4.968;2023-07-22T08:32:32;8.13;;;3.67;;
9974;SDS011;5028;50.974;4.968;2023-07-22T08:35:01;7.37;;;4.10;;
9974;SDS011;5028;50.974;4.968;2023-07-22T08:37:31;7.27;;;4.10;;
9974;SDS011;5028;50.974;4.968;2023-07-22T08:40:00;8.30;;;3.93;;
9974;SDS011;5028;50.974;4.968;2023-07-22T08:42:29;5.77;;;3.93;;
9974;SDS011;5028;50.974;4.968;2023-07-22T08:45:01;7.77;;;3.93;;
9974;SDS011;5028;50.974;4.968;2023-07-22T08:47:34;5.27;;;3.67;;
9974;SDS011;5028;50.974;4.968;2023-07-22T08:50:05;6.80;;;3.70;;
9974;SDS011;5028;50.974;4.968;2023-07-22T08:52:35;6.43;;;3.53;;
9974;SDS011;5028;50.974;4.968;2023-07-22T08:55:05;5.97;;;3.50;;
9974;SDS011;5028;50.974;4.968;2023-07-22T08:57:37;7.73;;;3.43;;
9974;SDS011;5028;50.974;4.968;2023-07-22T09:00:09;4.30;;;2.90;;
9974;SDS011;5028;50.974;4.968;2023-07-22T09:02:39;4.70;;;2.70;;
9974;SDS011;5028;50.974;4.968;2023-07-22T09:05:09;3.93;;;2.53;;
9974;SDS011;5028;50.974;4.968;2023-07-22T09:07:37;4.37;;;2.70;;
9974;SDS011;5028;50.974;4.968;2023-07-22T09:10:07;4.60;;;2.57;;
9974;SDS011;5028;50.974;4.968;2023-07-22T09:12:37;4.43;;;2.37;;
9974;SDS011;5028;50.974;4.968;2023-07-22T09:15:11;4.40;;;2.80;;
9974;SDS011;5028;50.974;4.968;2023-07-22T09:17:41;4.17;;;2.47;;
9974;SDS011;5028;50.974;4.968;2023-07-22T09:20:10;5.17;;;2.37;;
9974;SDS011;5028;50.974;4.968;2023-07-22T09:22:43;3.93;;;2.33;;
9974;SDS011;5028;50.974;4.968;2023-07-22T09:25:22;4.87;;;2.23;;
9974;SDS011;5028;50.974;4.968;2023-07-22T09:27:52;4.33;;;2.20;;
9974;SDS011;5028;50.974;4.968;2023-07-22T09:30:23;3.00;;;1.87;;
9974;SDS011;5028;50.974;4.968;2023-07-22T09:32:54;2.87;;;2.03;;
9974;SDS011;5028;50.974;4.968;2023-07-22T09:35:24;4.73;;;2.30;;
9974;SDS011;5028;50.974;4.968;2023-07-22T09:37:54;4.13;;;1.93;;
9974;SDS011;5028;50.974;4.968;2023-07-22T09:40:24;3.43;;;2.17;;
9974;SDS011;5028;50.974;4.968;2023-07-22T09:42:54;2.87;;;1.90;;
9974;SDS011;5028;50.974;4.968;2023-07-22T09:45:25;3.43;;;1.77;;
9974;SDS011;5028;50.974;4.968;2023-07-22T09:47:56;4.10;;;1.73;;
9974;SDS011;5028;50.974;4.968;2023-07-22T09:50:26;4.50;;;1.90;;
9974;SDS011;5028;50.974;4.968;2023-07-22T09:52:55;5.10;;;1.80;;
9974;SDS011;5028;50.974;4.968;2023-07-22T09:55:26;4.10;;;1.97;;
9974;SDS011;5028;50.974;4.968;2023-07-22T09:57:56;3.00;;;1.87;;
9974;SDS011;5028;50.974;4.968;2023-07-22T10:00:29;4.07;;;1.90;;
9974;SDS011;5028;50.974;4.968;2023-07-22T10:02:59;2.67;;;1.80;;
9974;SDS011;5028;50.974;4.968;2023-07-22T10:05:28;3.13;;;1.80;;
9974;SDS011;5028;50.974;4.968;2023-07-22T10:07:58;2.20;;;1.63;;
9974;SDS011;5028;50.974;4.968;2023-07-22T10:10:29;2.90;;;1.90;;
9974;SDS011;5028;50.974;4.968;2023-07-22T10:12:59;4.07;;;2.37;;
9974;SDS011;5028;50.974;4.968;2023-07-22T10:15:30;3.47;;;1.67;;
9974;SDS011;5028;50.974;4.968;2023-07-22T10:18:00;3.60;;;1.67;;
9974;SDS011;5028;50.974;4.968;2023-07-22T10:20:30;2.53;;;1.80;;
9974;SDS011;5028;50.974;4.968;2023-07-22T10:23:00;2.87;;;1.70;;
9974;SDS011;5028;50.974;4.968;2023-07-22T10:25:31;3.07;;;1.87;;
9974;SDS011;5028;50.974;4.968;2023-07-22T10:28:00;2.77;;;1.77;;
9974;SDS011;5028;50.974;4.968;2023-07-22T10:30:31;2.73;;;1.50;;
9974;SDS011;5028;50.974;4.968;2023-07-22T10:33:00;3.47;;;1.80;;
9974;SDS011;5028;50.974;4.968;2023-07-22T10:35:40;4.23;;;1.87;;
9974;SDS011;5028;50.974;4.968;2023-07-22T10:38:13;2.27;;;1.60;;
9974;SDS011;5028;50.974;4.968;2023-07-22T10:40:46;1.97;;;1.60;;
9974;SDS011;5028;50.974;4.968;2023-07-22T10:43:16;2.97;;;1.80;;
9974;SDS011;5028;50.974;4.968;2023-07-22T10:45:50;2.30;;;1.60;;
9974;SDS011;5028;50.974;4.968;2023-07-22T10:48:21;3.43;;;1.80;;
9974;SDS011;5028;50.974;4.968;2023-07-22T10:50:51;2.10;;;1.60;;
9974;SDS011;5028;50.974;4.968;2023-07-22T10:53:36;2.13;;;1.70;;
9974;SDS011;5028;50.974;4.968;2023-07-22T10:56:13;4.93;;;1.90;;
9974;SDS011;5028;50.974;4.968;2023-07-22T10:58:56;2.23;;;1.67;;
9974;SDS011;5028;50.974;4.968;2023-07-22T11:01:35;1.87;;;1.60;;
9974;SDS011;5028;50.974;4.968;2023-07-22T11:07:05;3.20;;;1.73;;
9974;SDS011;5028;50.974;4.968;2023-07-22T11:09:35;3.37;;;1.80;;
9974;SDS011;5028;50.974;4.968;2023-07-22T11:12:05;2.10;;;1.50;;
9974;SDS011;5028;50.974;4.968;2023-07-22T11:14:37;3.53;;;1.60;;
9974;SDS011;5028;50.974;4.968;2023-07-22T11:17:09;4.90;;;1.60;;
9974;SDS011;5028;50.974;4.968;2023-07-22T11:19:39;2.27;;;1.40;;
9974;SDS011;5028;50.974;4.968;2023-07-22T11:22:08;2.20;;;1.60;;
9974;SDS011;5028;50.974;4.968;2023-07-22T11:24:41;2.53;;;1.43;;
9974;SDS011;5028;50.974;4.968;2023-07-22T11:27:11;2.80;;;1.57;;
9974;SDS011;5028;50.974;4.968;2023-07-22T11:29:40;2.70;;;1.80;;
9974;SDS011;5028;50.974;4.968;2023-07-22T11:32:15;4.73;;;1.60;;
9974;SDS011;5028;50.974;4.968;2023-07-22T11:34:45;1.97;;;1.40;;
9974;SDS011;5028;50.974;4.968;2023-07-22T11:37:14;3.10;;;1.80;;
9974;SDS011;5028;50.974;4.968;2023-07-22T11:39:43;2.90;;;1.47;;
9974;SDS011;5028;50.974;4.968;2023-07-22T11:42:12;2.10;;;1.30;;
9974;SDS011;5028;50.974;4.968;2023-07-22T11:44:42;2.37;;;1.57;;
9974;SDS011;5028;50.974;4.968;2023-07-22T11:47:11;2.43;;;1.50;;
9974;SDS011;5028;50.974;4.968;2023-07-22T11:49:41;2.10;;;1.77;;
9974;SDS011;5028;50.974;4.968;2023-07-22T11:52:16;2.00;;;1.30;;
9974;SDS011;5028;50.974;4.968;2023-07-22T11:54:45;1.70;;;1.40;;
9974;SDS011;5028;50.974;4.968;2023-07-22T11:57:15;2.37;;;1.50;;
9974;SDS011;5028;50.974;4.968;2023-07-22T11:59:45;2.60;;;1.40;;
9974;SDS011;5028;50.974;4.968;2023-07-22T12:02:15;1.97;;;1.67;;
9974;SDS011;5028;50.974;4.968;2023-07-22T12:04:52;2.40;;;1.50;;
9974;SDS011;5028;50.974;4.968;2023-07-22T12:07:21;2.03;;;1.30;;
9974;SDS011;5028;50.974;4.968;2023-07-22T12:09:52;2.70;;;1.50;;
9974;SDS011;5028;50.974;4.968;2023-07-22T12:12:23;2.13;;;1.50;;
9974;SDS011;5028;50.974;4.968;2023-07-22T12:15:04;1.70;;;1.20;;
9974;SDS011;5028;50.974;4.968;2023-07-22T12:17:43;1.90;;;1.50;;
9974;SDS011;5028;50.974;4.968;2023-07-22T12:20:15;2.13;;;1.20;;
9974;SDS011;5028;50.974;4.968;2023-07-22T12:22:44;2.10;;;1.37;;
9974;SDS011;5028;50.974;4.968;2023-07-22T12:25:14;1.67;;;1.50;;
9974;SDS011;5028;50.974;4.968;2023-07-22T12:27:43;2.23;;;1.50;;
9974;SDS011;5028;50.974;4.968;2023-07-22T12:30:12;3.10;;;1.50;;
9974;SDS011;5028;50.974;4.968;2023-07-22T12:32:45;2.20;;;1.50;;
9974;SDS011;5028;50.974;4.968;2023-07-22T12:35:16;1.83;;;1.37;;
9974;SDS011;5028;50.974;4.968;2023-07-22T12:37:45;1.85;;;1.58;;
9974;SDS011;5028;50.974;4.968;2023-07-22T12:40:14;2.50;;;1.60;;
9974;SDS011;5028;50.974;4.968;2023-07-22T12:42:42;2.27;;;1.50;;
9974;SDS011;5028;50.974;4.968;2023-07-22T12:45:12;3.50;;;1.80;;
9974;SDS011;5028;50.974;4.968;2023-07-22T12:47:41;4.80;;;1.43;;
9974;SDS011;5028;50.974;4.968;2023-07-22T12:50:10;2.00;;;1.57;;
9974;SDS011;5028;50.974;4.968;2023-07-22T12:52:40;5.30;;;1.80;;
9974;SDS011;5028;50.974;4.968;2023-07-22T12:55:08;3.27;;;1.73;;
9974;SDS011;5028;50.974;4.968;2023-07-22T12:57:37;2.13;;;1.50;;
9974;SDS011;5028;50.974;4.968;2023-07-22T13:00:05;2.97;;;1.60;;
9974;SDS011;5028;50.974;4.968;2023-07-22T13:02:37;3.53;;;1.63;;
9974;SDS011;5028;50.974;4.968;2023-07-22T13:05:06;2.37;;;1.63;;
9974;SDS011;5028;50.974;4.968;2023-07-22T13:07:36;2.13;;;1.73;;
9974;SDS011;5028;50.974;4.968;2023-07-22T13:10:07;5.43;;;1.70;;
9974;SDS011;5028;50.974;4.968;2023-07-22T13:12:39;2.20;;;1.67;;
9974;SDS011;5028;50.974;4.968;2023-07-22T13:15:08;5.60;;;1.60;;
9974;SDS011;5028;50.974;4.968;2023-07-22T13:17:37;2.03;;;1.77;;
9974;SDS011;5028;50.974;4.968;2023-07-22T13:20:07;2.00;;;1.60;;
9974;SDS011;5028;50.974;4.968;2023-07-22T13:22:38;2.07;;;1.57;;
9974;SDS011;5028;50.974;4.968;2023-07-22T13:25:09;2.27;;;1.40;;
9974;SDS011;5028;50.974;4.968;2023-07-22T13:27:38;2.10;;;1.60;;
9974;SDS011;5028;50.974;4.968;2023-07-22T13:30:07;2.70;;;1.70;;
9974;SDS011;5028;50.974;4.968;2023-07-22T13:32:37;2.23;;;1.47;;
9974;SDS011;5028;50.974;4.968;2023-07-22T13:35:06;5.97;;;1.70;;
9974;SDS011;5028;50.974;4.968;2023-07-22T13:37:36;2.87;;;1.60;;
9974;SDS011;5028;50.974;4.968;2023-07-22T13:40:05;4.27;;;1.73;;
9974;SDS011;5028;50.974;4.968;2023-07-22T13:42:38;2.93;;;1.60;;
9974;SDS011;5028;50.974;4.968;2023-07-22T13:45:07;2.43;;;1.50;;
9974;SDS011;5028;50.974;4.968;2023-07-22T13:47:36;3.20;;;1.73;;
9974;SDS011;5028;50.974;4.968;2023-07-22T13:50:05;4.17;;;1.63;;
9974;SDS011;5028;50.974;4.968;2023-07-22T13:52:34;1.70;;;1.40;;
9974;SDS011;5028;50.974;4.968;2023-07-22T13:55:03;2.77;;;1.60;;
9974;SDS011;5028;50.974;4.968;2023-07-22T13:57:33;3.13;;;1.40;;
9974;SDS011;5028;50.974;4.968;2023-07-22T14:00:03;2.90;;;1.20;;
9974;SDS011;5028;50.974;4.968;2023-07-22T14:02:35;6.17;;;1.47;;
9974;SDS011;5028;50.974;4.968;2023-07-22T14:05:05;1.67;;;1.30;;
9974;SDS011;5028;50.974;4.968;2023-07-22T14:07:35;2.13;;;1.40;;
9974;SDS011;5028;50.974;4.968;2023-07-22T14:10:04;2.67;;;1.30;;
9974;SDS011;5028;50.974;4.968;2023-07-22T14:12:34;2.53;;;1.30;;
9974;SDS011;5028;50.974;4.968;2023-07-22T14:15:06;4.20;;;1.23;;
9974;SDS011;5028;50.974;4.968;2023-07-22T14:17:36;1.93;;;1.30;;
9974;SDS011;5028;50.974;4.968;2023-07-22T14:20:06;2.07;;;1.53;;
9974;SDS011;5028;50.974;4.968;2023-07-22T14:22:36;3.00;;;1.37;;
9974;SDS011;5028;50.974;4.968;2023-07-22T14:25:05;5.57;;;1.73;;
9974;SDS011;5028;50.974;4.968;2023-07-22T14:27:35;2.40;;;1.47;;
9974;SDS011;5028;50.974;4.968;2023-07-22T14:30:09;3.87;;;1.57;;
9974;SDS011;5028;50.974;4.968;2023-07-22T14:32:38;2.23;;;1.43;;
9974;SDS011;5028;50.974;4.968;2023-07-22T14:35:07;2.53;;;1.40;;
9974;SDS011;5028;50.974;4.968;2023-07-22T14:37:37;2.27;;;1.40;;
9974;SDS011;5028;50.974;4.968;2023-07-22T14:40:07;1.60;;;1.20;;
9974;SDS011;5028;50.974;4.968;2023-07-22T14:42:36;3.93;;;1.40;;
9974;SDS011;5028;50.974;4.968;2023-07-22T14:45:06;2.90;;;1.20;;
9974;SDS011;5028;50.974;4.968;2023-07-22T14:47:39;2.27;;;1.40;;
9974;SDS011;5028;50.974;4.968;2023-07-22T14:50:08;2.97;;;1.50;;
9974;SDS011;5028;50.974;4.968;2023-07-22T14:52:37;2.53;;;1.40;;
9974;SDS011;5028;50.974;4.968;2023-07-22T14:55:06;5.03;;;1.50;;
9974;SDS011;5028;50.974;4.968;2023-07-22T14:57:35;2.37;;;1.50;;
9974;SDS011;5028;50.974;4.968;2023-07-22T15:00:05;2.63;;;1.60;;
9974;SDS011;5028;50.974;4.968;2023-07-22T15:02:36;3.50;;;1.60;;
9974;SDS011;5028;50.974;4.968;2023-07-22T15:05:05;3.10;;;1.83;;
9974;SDS011;5028;50.974;4.968;2023-07-22T15:07:34;3.50;;;1.50;;
9974;SDS011;5028;50.974;4.968;2023-07-22T15:10:03;2.50;;;1.50;;
9974;SDS011;5028;50.974;4.968;2023-07-22T15:12:33;4.20;;;1.87;;
9974;SDS011;5028;50.974;4.968;2023-07-22T15:15:02;2.30;;;1.60;;
9974;SDS011;5028;50.974;4.968;2023-07-22T15:17:33;6.07;;;1.63;;
9974;SDS011;5028;50.974;4.968;2023-07-22T15:20:04;2.33;;;1.80;;
9974;SDS011;5028;50.974;4.968;2023-07-22T15:22:33;2.50;;;1.50;;
9974;SDS011;5028;50.974;4.968;2023-07-22T15:25:03;2.23;;;1.77;;
9974;SDS011;5028;50.974;4.968;2023-07-22T15:27:33;3.67;;;1.80;;
9974;SDS011;5028;50.974;4.968;2023-07-22T15:30:01;5.73;;;1.90;;